Norris Observed Data For Previous 48 Hours

Caption
Day and Hour Reservoir Elevation (behind dam)* Tailwater Elevation (below dam)* Average Hourly Discharge*
7/14/2018 2 AM EDT 1,020.04 822.41 102
7/14/2018 3 AM EDT 1,020.09 823.78 3,180
7/14/2018 4 AM EDT 1,020.09 822.16 20
7/14/2018 5 AM EDT 1,020.08 821.81 20
7/14/2018 6 AM EDT 1,020.07 821.65 20
7/14/2018 7 AM EDT 1,020.07 821.52 20
7/14/2018 8 AM EDT 1,020.06 821.40 20
7/14/2018 9 AM EDT 1,020.08 821.29 20
7/14/2018 10 AM EDT 1,020.05 822.18 98
7/14/2018 11 AM EDT 1,020.05 824.62 3,400
7/14/2018 12 PM EDT 1,020.06 824.83 3,398
7/14/2018 1 PM EDT 1,020.06 824.87 3,405
7/14/2018 2 PM EDT 1,020.04 825.42 3,412
7/14/2018 3 PM EDT 1,020.04 826.85 6,139
7/14/2018 4 PM EDT 1,020.02 826.91 6,667
7/14/2018 5 PM EDT 1,020.02 826.88 6,676
7/14/2018 6 PM EDT 1,020.03 826.56 6,676
7/14/2018 7 PM EDT 1,020.03 822.52 693
7/14/2018 8 PM EDT 1,019.98 821.92 20
7/14/2018 9 PM EDT 1,019.98 821.71 20
7/14/2018 10 PM EDT 1,019.99 821.58 20
7/14/2018 11 PM EDT 1,019.99 821.46 20
7/15/2018 12 AM EDT 1,020.00 821.35 20
7/15/2018 1 AM EDT 1,019.99 821.26 20
7/15/2018 2 AM EDT 1,020.00 821.16 20
7/15/2018 3 AM EDT 1,019.99 822.23 105
7/15/2018 4 AM EDT 1,020.03 823.71 3,191
7/15/2018 5 AM EDT 1,020.01 822.14 20
7/15/2018 6 AM EDT 1,020.00 821.80 20
7/15/2018 7 AM EDT 1,020.01 821.64 20
7/15/2018 8 AM EDT 1,020.01 821.52 20
7/15/2018 9 AM EDT 1,020.01 821.41 20
7/15/2018 10 AM EDT 1,019.97 822.27 97
7/15/2018 11 AM EDT 1,019.98 824.63 3,406
7/15/2018 12 PM EDT 1,020.00 824.83 3,401
7/15/2018 1 PM EDT 1,020.00 824.86 3,399
7/15/2018 2 PM EDT 1,019.97 825.49 3,408
7/15/2018 3 PM EDT 1,019.95 826.85 6,129
7/15/2018 4 PM EDT 1,019.93 826.92 6,670
7/15/2018 5 PM EDT 1,019.96 826.85 6,685
7/15/2018 6 PM EDT 1,019.96 826.65 6,680
7/15/2018 7 PM EDT 1,019.96 822.55 690
7/15/2018 8 PM EDT 1,019.94 821.93 20
7/15/2018 9 PM EDT 1,019.93 821.73 20
7/15/2018 10 PM EDT 1,019.93 821.60 20
7/15/2018 11 PM EDT 1,019.93 821.49 20
7/16/2018 12 AM EDT 1,019.94 821.38 20
7/16/2018 1 AM EDT 1,019.93 821.28 20
7/16/2018 2 AM EDT 1,019.93 824.52 2,695
7/16/2018 3 AM EDT 1,019.94 824.86 3,411
7/16/2018 4 AM EDT 1,019.94 824.90 3,395
7/16/2018 5 AM EDT 1,019.93 824.89 3,402
7/16/2018 6 AM EDT 1,019.91 824.90 3,397
7/16/2018 7 AM EDT 1,019.91 824.83 3,393
7/16/2018 8 AM EDT - 999.00 824.86 3,396
7/16/2018 9 AM EDT - 999.00 824.87 3,392
7/16/2018 10 AM EDT 1,019.89 824.81 3,394

Elevations are in feet above sea level. Discharges are in cubic feet per second and are reported at the end of the hour.